Time;durP1;ratioP1;P1;durP2;ratioP2;P2;SDS_P1;SDS_P2;PMS_P1;PMS_P2;Temp;Humidity;BMP_temperature;BMP_pressure;BME280_temperature;BME280_humidity;BME280_pressure;Samples;Min_cycle;Max_cycle;Signal;HPM_P1;HPM_P2
2023/08/08 00:00:48;;;;;;;2.28;1.90;;;;;;;25.70;42.81;99219.00;5092659;28;20043;-43
2023/08/08 00:03:14;;;;;;;2.30;1.80;;;;;;;25.89;42.50;99215.19;5092368;28;20490;-45
2023/08/08 00:05:39;;;;;;;2.33;1.83;;;;;;;25.65;42.82;99212.91;5091818;28;20104;-45
2023/08/08 00:08:05;;;;;;;2.38;1.90;;;;;;;25.66;42.64;99212.56;5092471;28;20115;-45
2023/08/08 00:10:31;;;;;;;3.63;1.60;;;;;;;25.63;43.15;99210.50;5092042;28;20093;-44
2023/08/08 00:12:56;;;;;;;2.88;1.92;;;;;;;25.69;42.63;99217.38;5092063;28;20448;-43
2023/08/08 00:15:22;;;;;;;2.70;1.88;;;;;;;25.57;43.25;99214.47;5092404;28;20016;-45
2023/08/08 00:17:47;;;;;;;4.97;1.85;;;;;;;25.71;43.04;99214.34;5091575;28;20016;-43
2023/08/08 00:20:13;;;;;;;2.88;1.70;;;;;;;25.43;43.35;99197.44;5092117;28;20027;-43
2023/08/08 00:22:38;;;;;;;3.00;1.80;;;;;;;25.25;44.20;99213.72;5092208;28;20048;-42
2023/08/08 00:25:04;;;;;;;2.75;1.90;;;;;;;25.45;43.76;99215.06;5092300;28;20024;-44
2023/08/08 00:27:29;;;;;;;1.83;1.55;;;;;;;25.23;44.35;99218.69;5092757;28;20455;-45
2023/08/08 00:29:55;;;;;;;2.70;1.88;;;;;;;25.45;43.95;99222.44;5092719;28;20032;-45
2023/08/08 00:32:20;;;;;;;4.13;1.70;;;;;;;25.31;44.43;99225.28;5092222;28;20108;-44
2023/08/08 00:34:46;;;;;;;2.42;1.80;;;;;;;25.20;45.05;99219.25;5092652;28;20383;-43
2023/08/08 00:37:11;;;;;;;2.70;1.90;;;;;;;25.26;45.36;99225.41;5092361;28;20340;-42
2023/08/08 00:39:37;;;;;;;2.30;1.67;;;;;;;25.48;44.66;99225.34;5092579;28;20154;-43
2023/08/08 00:42:02;;;;;;;2.05;1.55;;;;;;;25.43;45.14;99221.97;5092397;28;20179;-45
2023/08/08 00:44:28;;;;;;;2.13;1.60;;;;;;;25.50;45.10;99231.28;5092192;28;20028;-42
2023/08/08 00:46:54;;;;;;;3.85;1.80;;;;;;;25.45;45.26;99225.16;5092042;28;20024;-45
2023/08/08 00:49:20;;;;;;;2.03;1.50;;;;;;;25.24;46.09;99224.91;5092220;28;20028;-41
2023/08/08 00:51:47;;;;;;;1.70;1.48;;;;;;;25.36;45.96;99227.88;5092204;28;20140;-43
2023/08/08 00:54:13;;;;;;;2.83;1.60;;;;;;;25.27;46.09;99227.81;5092093;28;20043;-42
2023/08/08 00:56:39;;;;;;;1.98;1.60;;;;;;;25.45;45.72;99225.16;5091884;28;20020;-44
2023/08/08 00:59:04;;;;;;;1.85;1.40;;;;;;;25.56;45.61;99223.75;5091974;28;20054;-44
2023/08/08 01:01:29;;;;;;;2.72;1.40;;;;;;;25.15;46.56;99238.44;5091854;28;20565;-43
2023/08/08 01:03:55;;;;;;;3.22;1.42;;;;;;;24.82;47.52;99233.31;5091918;28;20103;-48
2023/08/08 01:06:59;;;;;;;3.47;1.60;;;;;;;24.86;47.82;99239.72;5091787;28;20480;-43
2023/08/08 01:09:37;;;;;;;1.90;1.30;;;;;;;24.73;48.20;99238.72;5076322;28;20056;-46
2023/08/08 01:12:03;;;;;;;2.00;1.17;;;;;;;24.48;48.77;99237.34;5092151;28;20026;-47
2023/08/08 01:14:32;;;;;;;1.70;1.30;;;;;;;24.85;47.97;99240.84;5091928;28;20103;-46
2023/08/08 01:16:58;;;;;;;3.55;1.33;;;;;;;24.80;48.12;99246.41;5091703;28;20101;-48
2023/08/08 01:19:28;;;;;;;1.50;1.30;;;;;;;24.51;48.83;99238.66;5091778;28;20035;-46
2023/08/08 01:21:57;;;;;;;1.20;1.10;;;;;;;24.47;49.28;99245.84;5073413;28;20097;-45
2023/08/08 01:24:25;;;;;;;1.90;1.50;;;;;;;24.29;49.67;99255.75;5091733;28;20444;-46
2023/08/08 01:26:51;;;;;;;1.55;1.20;;;;;;;24.11;49.99;99255.59;5091630;28;20103;-45
2023/08/08 01:29:16;;;;;;;1.70;1.30;;;;;;;24.06;49.86;99268.50;5090994;28;20107;-44
2023/08/08 01:31:42;;;;;;;1.38;1.00;;;;;;;23.46;51.00;99256.63;5091068;28;20031;-47
2023/08/08 01:34:07;;;;;;;1.27;1.02;;;;;;;23.63;50.26;99266.88;5091553;28;20032;-46
2023/08/08 01:36:44;;;;;;;1.55;1.00;;;;;;;23.51;50.45;99266.56;5091809;28;20024;-44
2023/08/08 01:39:16;;;;;;;1.52;1.10;;;;;;;23.33;50.91;99268.28;5091259;28;20028;-48
2023/08/08 01:41:44;;;;;;;0.77;0.60;;;;;;;23.15;51.03;99275.34;5091443;28;20384;-47
2023/08/08 01:44:10;;;;;;;1.02;0.73;;;;;;;23.31;50.85;99273.19;5091259;28;20050;-45
2023/08/08 01:46:38;;;;;;;1.27;0.73;;;;;;;23.29;51.06;99276.22;5091281;28;20024;-45
2023/08/08 01:49:03;;;;;;;1.17;0.70;;;;;;;23.37;50.92;99277.41;5091214;28;20028;-48
2023/08/08 01:51:29;;;;;;;1.15;0.70;;;;;;;22.74;52.51;99282.25;5091084;28;20077;-46
2023/08/08 01:53:54;;;;;;;1.13;0.70;;;;;;;22.78;52.72;99277.84;5091220;28;20092;-46
2023/08/08 01:56:20;;;;;;;1.00;0.50;;;;;;;22.87;52.59;99280.69;5090939;28;20024;-46
2023/08/08 01:58:45;;;;;;;1.42;0.90;;;;;;;23.39;51.15;99276.00;5091106;28;20336;-43
2023/08/08 02:01:11;;;;;;;2.55;0.80;;;;;;;22.96;52.31;99273.50;5091263;28;20016;-47
2023/08/08 02:03:36;;;;;;;1.05;0.93;;;;;;;22.93;52.33;99274.06;5090927;28;20016;-46
2023/08/08 02:06:02;;;;;;;1.17;0.70;;;;;;;23.20;52.05;99283.41;5091080;28;20108;-43
2023/08/08 02:08:27;;;;;;;0.98;0.80;;;;;;;22.80;52.94;99301.97;5090643;28;20107;-44
2023/08/08 02:10:52;;;;;;;0.90;0.70;;;;;;;22.84;52.73;99297.53;5090873;28;20027;-44
2023/08/08 02:13:18;;;;;;;0.85;0.77;;;;;;;22.82;52.81;99299.75;5090865;28;20035;-45
2023/08/08 02:15:43;;;;;;;2.47;0.80;;;;;;;22.79;52.95;99303.03;5090956;28;20046;-47
2023/08/08 02:18:10;;;;;;;0.80;0.65;;;;;;;23.22;51.85;99292.06;5090659;28;20443;-43
2023/08/08 02:20:36;;;;;;;2.75;0.90;;;;;;;23.05;52.13;99314.34;5090810;28;20391;-47
2023/08/08 02:23:02;;;;;;;4.20;0.90;;;;;;;22.48;53.53;99308.13;5091061;28;20020;-42
2023/08/08 02:25:27;;;;;;;2.28;0.90;;;;;;;22.56;53.76;99313.72;5090333;28;20067;-42
2023/08/08 02:27:53;;;;;;;2.65;0.90;;;;;;;22.20;54.92;99321.47;5090737;28;20048;-43
2023/08/08 02:30:18;;;;;;;1.50;1.08;;;;;;;22.33;54.73;99328.13;5090517;28;20024;-44
2023/08/08 02:32:43;;;;;;;1.38;0.80;;;;;;;22.45;54.16;99328.50;5090915;28;20036;-44
2023/08/08 02:35:09;;;;;;;0.93;0.82;;;;;;;22.47;53.90;99317.38;5090847;28;20459;-44
2023/08/08 02:37:35;;;;;;;2.33;0.93;;;;;;;22.49;53.54;99326.81;5090340;28;20042;-47
2023/08/08 02:40:00;;;;;;;1.98;1.20;;;;;;;22.52;53.73;99323.50;5090559;28;20032;-45
2023/08/08 02:42:25;;;;;;;1.88;1.13;;;;;;;22.21;54.87;99334.72;5096789;28;20114;-45
2023/08/08 02:44:51;;;;;;;1.52;0.98;;;;;;;22.33;54.66;99338.97;5097231;28;20042;-47
2023/08/08 02:47:16;;;;;;;1.58;1.17;;;;;;;22.01;55.71;99343.94;5097248;28;20054;-43
2023/08/08 02:49:42;;;;;;;3.90;1.27;;;;;;;22.10;55.85;99341.38;5096049;28;20031;-44
2023/08/08 02:52:07;;;;;;;1.27;0.90;;;;;;;22.08;56.04;99340.84;5095935;28;20016;-45
2023/08/08 02:54:33;;;;;;;1.60;1.00;;;;;;;22.16;55.82;99347.53;5096058;28;20027;-47
2023/08/08 02:56:58;;;;;;;1.27;1.17;;;;;;;22.29;55.57;99354.97;5095721;28;20081;-43
2023/08/08 02:59:23;;;;;;;2.63;1.00;;;;;;;22.19;55.73;99353.19;5096109;28;20028;-46
2023/08/08 03:01:49;;;;;;;1.83;1.00;;;;;;;22.18;55.92;99358.88;5095599;28;20028;-42
2023/08/08 03:04:15;;;;;;;1.63;0.90;;;;;;;21.93;56.83;99343.75;5096011;28;20078;-43
2023/08/08 03:06:40;;;;;;;1.17;1.08;;;;;;;22.03;56.65;99347.16;5096184;28;20016;-44
2023/08/08 03:09:05;;;;;;;1.50;1.10;;;;;;;21.97;57.04;99358.31;5096870;28;20024;-44
2023/08/08 03:11:31;;;;;;;1.10;0.93;;;;;;;21.98;57.18;99357.25;5096425;28;20178;-44
2023/08/08 03:13:56;;;;;;;1.08;0.98;;;;;;;21.59;58.82;99374.41;5096801;28;20107;-45
2023/08/08 03:16:22;;;;;;;2.17;1.20;;;;;;;21.85;58.27;99375.78;5097083;28;20028;-45
2023/08/08 03:18:47;;;;;;;1.77;1.35;;;;;;;21.63;59.26;99373.56;5097118;28;20023;-41
2023/08/08 03:21:13;;;;;;;1.88;1.10;;;;;;;21.44;60.08;99378.91;5096798;28;20028;-44
2023/08/08 03:23:38;;;;;;;1.98;1.23;;;;;;;21.67;59.23;99385.44;5096866;28;20016;-42
2023/08/08 03:26:04;;;;;;;3.53;1.13;;;;;;;21.65;59.64;99389.53;5097092;28;20031;-46
2023/08/08 03:28:29;;;;;;;1.90;1.10;;;;;;;21.53;60.21;99403.44;5096512;28;20161;-44
2023/08/08 03:30:54;;;;;;;1.15;1.00;;;;;;;21.70;60.02;99400.31;5096642;28;20016;-47
2023/08/08 03:33:20;;;;;;;1.30;1.10;;;;;;;21.79;59.68;99417.56;5096646;28;20020;-46
2023/08/08 03:35:45;;;;;;;1.20;1.05;;;;;;;22.22;58.23;99428.50;5097115;28;20027;-44
2023/08/08 03:38:11;;;;;;;2.08;1.10;;;;;;;22.30;58.33;99432.50;5096459;28;20389;-44
2023/08/08 03:40:36;;;;;;;1.88;1.15;;;;;;;22.39;57.73;99430.78;5096745;28;20024;-43
2023/08/08 03:43:02;;;;;;;11.63;7.72;;;;;;;22.64;57.03;99426.94;5096607;28;20027;-46
2023/08/08 03:45:28;;;;;;;5.18;3.97;;;;;;;22.20;58.66;99438.81;5096699;28;20103;-43
2023/08/08 03:47:53;;;;;;;5.20;1.80;;;;;;;22.33;59.04;99441.94;5096625;28;20421;-42
2023/08/08 03:50:20;;;;;;;1.02;0.75;;;;;;;22.70;58.15;99445.84;5096556;28;20028;-42
2023/08/08 03:52:45;;;;;;;1.75;1.30;;;;;;;22.62;59.29;99456.25;5094162;28;20122;-45
2023/08/08 03:55:11;;;;;;;2.60;1.48;;;;;;;22.76;58.76;99466.38;5093372;28;20043;-46
2023/08/08 03:57:36;;;;;;;1.30;1.10;;;;;;;22.75;58.95;99471.00;5093130;28;20043;-42
2023/08/08 04:00:02;;;;;;;2.17;1.08;;;;;;;22.78;58.66;99472.31;5093005;28;20031;-42
2023/08/08 04:02:28;;;;;;;2.60;1.20;;;;;;;22.41;60.02;99479.28;5093120;28;20024;-45
2023/08/08 04:04:54;;;;;;;2.60;1.20;;;;;;;22.31;60.00;99484.78;5092981;28;20111;-45
2023/08/08 04:07:19;;;;;;;1.98;1.10;;;;;;;22.30;59.83;99489.41;5092999;28;20102;-47
2023/08/08 04:09:44;;;;;;;2.30;1.00;;;;;;;22.22;60.17;99488.13;5092448;28;20101;-47
2023/08/08 04:12:10;;;;;;;1.90;1.05;;;;;;;21.71;61.26;99496.69;5092731;28;20016;-43
2023/08/08 04:14:35;;;;;;;3.50;1.30;;;;;;;21.61;61.38;99496.75;5092688;28;20454;-46
2023/08/08 04:17:01;;;;;;;3.05;1.50;;;;;;;21.60;61.09;99511.41;5092638;28;20019;-44
2023/08/08 04:19:26;;;;;;;1.52;1.02;;;;;;;21.77;60.70;99517.22;5092841;28;20032;-44
2023/08/08 04:21:51;;;;;;;1.33;1.00;;;;;;;21.57;63.94;99523.63;5092783;28;20030;-44
2023/08/08 04:24:17;;;;;;;1.70;1.23;;;;;;;21.52;66.44;99539.09;5092786;28;20097;-41
2023/08/08 04:26:43;;;;;;;3.15;1.13;;;;;;;21.45;68.12;99534.78;5092891;28;20043;-43
2023/08/08 04:29:08;;;;;;;3.17;1.40;;;;;;;21.27;69.82;99540.81;5092479;28;20631;-43
2023/08/08 04:31:33;;;;;;;2.25;1.73;;;;;;;21.24;70.94;99549.50;5092884;28;20028;-43
2023/08/08 04:34:00;;;;;;;3.53;1.70;;;;;;;21.39;71.41;99540.47;5092205;28;20020;-43
2023/08/08 04:36:29;;;;;;;2.40;1.40;;;;;;;21.00;72.47;99539.34;5092610;28;20048;-43
2023/08/08 04:38:55;;;;;;;1.52;1.35;;;;;;;21.08;72.61;99536.03;5092384;28;20063;-42
2023/08/08 04:41:20;;;;;;;3.65;1.42;;;;;;;20.80;73.30;99542.13;5092386;28;20052;-43
2023/08/08 04:43:46;;;;;;;3.55;1.92;;;;;;;20.70;75.13;99534.84;5092186;28;20031;-43
2023/08/08 04:46:12;;;;;;;2.20;1.80;;;;;;;20.81;74.24;99539.16;5092610;28;20020;-43
2023/08/08 04:48:37;;;;;;;2.38;1.80;;;;;;;20.68;74.45;99534.31;5092412;28;20024;-42
2023/08/08 04:51:06;;;;;;;4.57;1.63;;;;;;;20.69;75.30;99558.38;5092113;28;20103;-46
2023/08/08 04:53:31;;;;;;;2.92;1.83;;;;;;;20.62;75.82;99557.03;5092071;28;20051;-44
2023/08/08 04:55:57;;;;;;;3.15;1.70;;;;;;;20.14;78.59;99575.44;5091566;28;20192;-42
2023/08/08 04:58:22;;;;;;;2.70;1.75;;;;;;;20.13;78.55;99579.25;5091919;28;20098;-44
2023/08/08 05:00:48;;;;;;;2.05;1.50;;;;;;;20.00;78.81;99583.28;5091612;28;20023;-44
2023/08/08 05:03:13;;;;;;;2.20;1.60;;;;;;;19.45;81.23;99589.09;5092090;28;20065;-44
2023/08/08 05:05:38;;;;;;;1.90;1.60;;;;;;;19.63;79.92;99597.78;5091514;28;20016;-44
2023/08/08 05:08:04;;;;;;;58.05;34.55;;;;;;;19.78;80.00;99599.72;5091361;28;20028;-41
2023/08/08 05:10:31;;;;;;;2.40;1.90;;;;;;;19.77;80.51;99609.72;5091680;28;20051;-42
2023/08/08 05:12:57;;;;;;;3.75;2.55;;;;;;;19.90;79.11;99619.19;5091645;28;20032;-43
2023/08/08 05:15:22;;;;;;;2.85;2.15;;;;;;;19.79;79.32;99623.75;5091407;28;20069;-43
2023/08/08 05:17:48;;;;;;;3.30;2.05;;;;;;;20.12;77.57;99627.03;5091365;28;20069;-42
2023/08/08 05:20:13;;;;;;;2.72;1.63;;;;;;;20.31;76.88;99638.13;5091193;28;20110;-43
2023/08/08 05:22:39;;;;;;;3.25;2.00;;;;;;;20.66;74.79;99636.53;5091542;28;20450;-43
2023/08/08 05:25:04;;;;;;;2.45;2.10;;;;;;;20.42;75.85;99642.44;5091407;28;20098;-44
2023/08/08 05:27:30;;;;;;;3.22;2.00;;;;;;;20.14;76.84;99640.28;5091236;28;20059;-43
2023/08/08 05:29:55;;;;;;;3.17;2.40;;;;;;;20.24;77.02;99649.22;5091566;28;20534;-43
2023/08/08 05:32:21;;;;;;;3.42;2.53;;;;;;;20.21;77.38;99655.13;5091924;28;20488;-43
2023/08/08 05:34:46;;;;;;;11.88;8.85;;;;;;;20.68;74.37;99653.28;5091494;28;20039;-45
2023/08/08 05:37:12;;;;;;;4.03;3.28;;;;;;;20.20;77.29;99667.03;5091361;28;20047;-45
2023/08/08 05:39:37;;;;;;;3.72;2.75;;;;;;;20.27;76.15;99675.66;5090930;28;20012;-46
2023/08/08 05:42:03;;;;;;;2.45;2.10;;;;;;;19.98;77.20;99682.66;5091671;28;20016;-43
2023/08/08 05:44:28;;;;;;;2.72;1.95;;;;;;;20.06;77.26;99677.53;5091782;28;20028;-43
2023/08/08 05:46:53;;;;;;;2.85;2.20;;;;;;;20.01;77.19;99685.66;5091399;28;20028;-43
2023/08/08 05:49:19;;;;;;;2.85;2.03;;;;;;;20.17;76.26;99681.06;5090973;28;20082;-44
2023/08/08 05:51:44;;;;;;;4.68;2.30;;;;;;;20.32;74.16;99682.97;5091165;28;20073;-43
2023/08/08 05:54:11;;;;;;;3.10;2.20;;;;;;;20.50;73.82;99685.16;5091350;28;20234;-45
2023/08/08 05:56:37;;;;;;;3.03;2.10;;;;;;;19.63;76.63;99692.25;5091124;28;20028;-43
2023/08/08 05:59:03;;;;;;;4.07;2.20;;;;;;;19.02;80.07;99696.28;5090912;28;20020;-41
2023/08/08 06:01:30;;;;;;;3.40;2.22;;;;;;;18.98;81.14;99692.47;5091330;28;20118;-40
2023/08/08 06:03:58;;;;;;;17.00;11.55;;;;;;;19.26;80.19;99704.75;5090667;28;20024;-41
2023/08/08 06:06:23;;;;;;;3.80;2.97;;;;;;;19.60;77.82;99699.00;5090854;28;20031;-42
2023/08/08 06:08:48;;;;;;;3.08;2.30;;;;;;;20.11;75.27;99707.28;5090520;28;20392;-42
2023/08/08 06:11:14;;;;;;;3.78;2.42;;;;;;;20.16;75.92;99703.75;5089985;28;20020;-42
2023/08/08 06:13:39;;;;;;;3.53;2.65;;;;;;;20.07;74.38;99703.47;5088412;28;20389;-41
2023/08/08 06:16:06;;;;;;;4.35;3.03;;;;;;;20.28;74.34;99687.31;5088438;28;20020;-41
2023/08/08 06:18:35;;;;;;;3.38;2.50;;;;;;;20.54;73.16;99690.81;5089099;28;20016;-42
2023/08/08 06:21:02;;;;;;;4.05;2.55;;;;;;;20.29;73.84;99697.03;5089272;28;20118;-42
2023/08/08 06:23:27;;;;;;;6.10;3.30;;;;;;;20.41;73.67;99705.69;5089923;28;20028;-42
2023/08/08 06:25:54;;;;;;;6.97;3.92;;;;;;;20.40;72.83;99703.25;5089961;28;20359;-45
2023/08/08 06:28:19;;;;;;;5.50;2.83;;;;;;;20.45;72.44;99708.66;5090128;28;20115;-42
2023/08/08 06:30:45;;;;;;;3.67;2.65;;;;;;;20.45;72.09;99711.38;5089958;28;20161;-41
2023/08/08 06:33:10;;;;;;;3.20;2.72;;;;;;;20.79;71.01;99702.72;5090871;28;20023;-42
2023/08/08 06:35:36;;;;;;;3.35;3.00;;;;;;;20.92;70.65;99704.88;5090281;28;20027;-42
2023/08/08 06:38:02;;;;;;;4.55;2.72;;;;;;;21.15;70.02;99699.97;5089866;28;20355;-42
2023/08/08 06:40:27;;;;;;;3.55;2.95;;;;;;;21.15;69.66;99700.78;5090349;28;20077;-45
2023/08/08 06:42:53;;;;;;;4.32;2.75;;;;;;;21.15;68.61;99684.56;5089968;28;20440;-42
2023/08/08 06:45:18;;;;;;;3.92;2.78;;;;;;;21.28;68.18;99691.25;5089941;28;20024;-42
2023/08/08 06:47:45;;;;;;;3.25;2.75;;;;;;;21.36;67.69;99687.19;5089872;28;20028;-47
2023/08/08 06:50:10;;;;;;;3.38;2.85;;;;;;;21.47;68.79;99697.72;5090186;28;20091;-43
2023/08/08 06:52:36;;;;;;;3.45;2.83;;;;;;;21.46;68.56;99688.00;5089960;28;20104;-43
2023/08/08 06:55:02;;;;;;;4.75;3.03;;;;;;;21.20;69.38;99691.84;5090221;28;20051;-42
2023/08/08 06:57:28;;;;;;;4.68;3.25;;;;;;;21.75;66.74;99698.16;5090225;28;20432;-45
2023/08/08 06:59:54;;;;;;;6.43;3.00;;;;;;;21.58;68.72;99693.06;5089797;28;20523;-43
2023/08/08 07:02:20;;;;;;;3.72;2.88;;;;;;;22.05;66.85;99699.06;5089979;28;20016;-45
2023/08/08 07:04:46;;;;;;;3.72;2.90;;;;;;;22.02;66.62;99702.34;5089925;28;20099;-44
2023/08/08 07:07:11;;;;;;;4.45;3.00;;;;;;;21.77;68.10;99698.69;5089722;28;20558;-47
2023/08/08 07:09:37;;;;;;;4.45;2.72;;;;;;;21.95;66.44;99702.66;5089871;28;20024;-46
2023/08/08 07:12:04;;;;;;;3.38;2.72;;;;;;;22.17;65.65;99696.81;5089891;28;20020;-47
2023/08/08 07:14:29;;;;;;;5.40;2.95;;;;;;;22.36;64.89;99690.75;5089849;28;20479;-45
2023/08/08 07:16:55;;;;;;;3.25;2.75;;;;;;;22.64;63.81;99689.19;5089741;28;20028;-44
2023/08/08 07:19:21;;;;;;;6.68;3.00;;;;;;;22.65;63.18;99705.13;5090065;28;20125;-43
2023/08/08 07:21:47;;;;;;;4.10;2.78;;;;;;;22.72;64.30;99695.88;5089710;28;20063;-45
2023/08/08 07:24:13;;;;;;;4.57;2.72;;;;;;;22.86;63.85;99698.72;5089520;28;20034;-44
2023/08/08 07:26:39;;;;;;;6.45;2.85;;;;;;;23.09;63.15;99705.31;5089357;28;20395;-44
2023/08/08 07:29:05;;;;;;;4.28;2.60;;;;;;;22.66;62.48;99703.25;5092704;28;20160;-47
2023/08/08 07:31:32;;;;;;;3.80;2.90;;;;;;;22.91;61.49;99710.34;5093540;28;20024;-45
2023/08/08 07:33:57;;;;;;;3.88;2.78;;;;;;;23.11;62.02;99709.34;5093471;28;20036;-43
2023/08/08 07:36:23;;;;;;;3.80;2.88;;;;;;;23.12;62.47;99712.88;5093722;28;20081;-44
2023/08/08 07:38:51;;;;;;;4.95;2.83;;;;;;;23.10;62.50;99709.66;5093142;28;20043;-44
2023/08/08 07:41:17;;;;;;;3.33;2.80;;;;;;;22.99;61.45;99704.28;5093567;28;20023;-43
2023/08/08 07:43:43;;;;;;;3.65;2.60;;;;;;;23.35;59.99;99712.06;5093430;28;20103;-43
2023/08/08 07:46:09;;;;;;;3.20;2.55;;;;;;;23.45;59.86;99716.56;5093332;28;20020;-45
2023/08/08 07:48:35;;;;;;;2.83;2.35;;;;;;;23.32;59.39;99717.28;5092837;28;20085;-43
2023/08/08 07:51:00;;;;;;;2.70;2.33;;;;;;;23.32;58.65;99717.28;5093058;28;20028;-43
2023/08/08 07:53:26;;;;;;;3.10;2.10;;;;;;;22.98;58.52;99721.69;5093266;28;20043;-45
2023/08/08 07:55:51;;;;;;;3.97;2.13;;;;;;;22.87;58.55;99728.28;5093388;28;20016;-45
2023/08/08 07:58:16;;;;;;;2.92;2.40;;;;;;;22.93;59.49;99727.16;5093054;28;20023;-44
2023/08/08 08:00:42;;;;;;;3.50;2.30;;;;;;;23.17;58.90;99720.97;5093119;28;20020;-46
2023/08/08 08:03:07;;;;;;;5.20;2.50;;;;;;;23.20;58.91;99733.97;5092735;28;20016;-43
2023/08/08 08:05:34;;;;;;;2.88;2.28;;;;;;;23.11;59.17;99731.06;5093015;28;20106;-44
2023/08/08 08:08:00;;;;;;;3.65;2.58;;;;;;;23.02;59.32;99725.44;5092506;28;20392;-42
2023/08/08 08:10:25;;;;;;;4.40;2.55;;;;;;;23.21;58.58;99736.41;5092626;28;20024;-45
2023/08/08 08:12:57;;;;;;;3.10;2.28;;;;;;;23.34;58.17;99726.78;5092572;28;20016;-43
2023/08/08 08:15:23;;;;;;;4.55;2.40;;;;;;;23.17;58.89;99721.78;5092966;28;20024;-43
2023/08/08 08:17:48;;;;;;;4.38;2.58;;;;;;;23.21;59.55;99724.75;5093134;28;20498;-45
2023/08/08 08:20:14;;;;;;;2.90;2.10;;;;;;;22.48;60.38;99722.91;5092910;28;20024;-44
2023/08/08 08:22:40;;;;;;;4.75;2.30;;;;;;;22.62;60.80;99719.28;5092899;28;20031;-45
2023/08/08 08:25:08;;;;;;;9.63;2.40;;;;;;;22.55;60.10;99726.13;5092636;28;20480;-45
2023/08/08 08:27:33;;;;;;;3.30;1.87;;;;;;;22.96;58.80;99723.03;5092298;28;20077;-45
2023/08/08 08:29:59;;;;;;;2.03;1.83;;;;;;;23.17;57.62;99727.22;5092215;28;20020;-44
2023/08/08 08:32:24;;;;;;;9.32;1.90;;;;;;;23.17;54.90;99721.78;5092521;28;20085;-44
2023/08/08 08:34:50;;;;;;;4.43;1.90;;;;;;;23.26;56.17;99721.94;5092756;28;20077;-45
2023/08/08 08:37:15;;;;;;;3.25;1.90;;;;;;;23.52;55.89;99708.09;5092418;28;20427;-47
2023/08/08 08:39:40;;;;;;;3.33;1.80;;;;;;;23.72;54.98;99713.28;5092051;28;20511;-43
2023/08/08 08:42:11;;;;;;;4.35;1.80;;;;;;;23.90;53.99;99711.69;5092303;28;20056;-45
2023/08/08 08:44:37;;;;;;;2.65;1.55;;;;;;;23.98;52.75;99710.22;5092131;28;20107;-45
2023/08/08 08:47:10;;;;;;;2.33;1.60;;;;;;;24.43;52.80;99713.38;5091996;28;20107;-44
2023/08/08 08:49:38;;;;;;;2.53;1.60;;;;;;;25.27;49.95;99706.25;5092478;28;20384;-43
2023/08/08 08:52:04;;;;;;;3.40;1.70;;;;;;;25.15;49.57;99712.13;5092355;28;20093;-45
2023/08/08 08:54:31;;;;;;;1.73;1.50;;;;;;;25.59;48.86;99709.94;5091434;28;20446;-44
2023/08/08 08:56:57;;;;;;;2.92;1.52;;;;;;;25.98;46.58;99709.41;5092069;28;20107;-43
2023/08/08 08:59:23;;;;;;;1.73;1.55;;;;;;;26.19;46.10;99700.78;5091652;28;20024;-44
2023/08/08 09:01:50;;;;;;;3.05;1.58;;;;;;;26.37;45.43;99702.53;5091998;28;20024;-44
2023/08/08 09:04:19;;;;;;;3.35;1.50;;;;;;;26.53;44.29;99700.22;5091971;28;20023;-43
2023/08/08 09:06:46;;;;;;;1.50;1.40;;;;;;;27.07;44.76;99705.66;5091663;28;20509;-43
2023/08/08 09:09:13;;;;;;;1.60;1.50;;;;;;;27.24;42.86;99697.53;5091387;28;20031;-44
2023/08/08 09:11:40;;;;;;;2.25;1.60;;;;;;;27.42;42.60;99692.97;5092150;28;20028;-44
2023/08/08 09:14:19;;;;;;;3.85;1.60;;;;;;;27.74;41.67;99698.34;5091430;28;20121;-43
2023/08/08 09:16:45;;;;;;;1.92;1.38;;;;;;;27.93;40.48;99692.59;5091205;28;20065;-43
2023/08/08 09:19:11;;;;;;;3.40;1.60;;;;;;;28.18;40.67;99686.34;5090788;28;20024;-42
2023/08/08 09:21:37;;;;;;;2.45;1.50;;;;;;;28.49;39.67;99687.28;5091309;28;20038;-44
2023/08/08 09:24:03;;;;;;;3.00;1.58;;;;;;;28.67;39.87;99686.13;5091147;28;20071;-45
2023/08/08 09:26:28;;;;;;;1.30;1.20;;;;;;;28.32;37.88;99682.63;5091096;28;20099;-45
2023/08/08 09:28:54;;;;;;;1.98;1.20;;;;;;;28.62;37.42;99670.69;5091486;28;20043;-45
2023/08/08 09:31:19;;;;;;;1.52;1.10;;;;;;;28.79;36.83;99674.50;5090827;28;20486;-44
2023/08/08 09:33:48;;;;;;;1.15;1.05;;;;;;;28.63;36.64;99666.81;5090978;28;20032;-45
2023/08/08 09:36:15;;;;;;;;;;;;;;;28.68;37.49;99673.25;5091821;28;20035;-44
2023/08/08 09:38:41;;;;;;;2.33;1.58;;;;;;;28.83;37.23;99676.25;5091243;28;19943;-45
2023/08/08 09:41:06;;;;;;;3.10;1.42;;;;;;;28.56;37.78;99674.72;5090972;28;20326;-45
2023/08/08 09:43:31;;;;;;;1.52;1.40;;;;;;;28.84;36.01;99655.16;5091193;28;20024;-46
2023/08/08 09:45:57;;;;;;;3.53;1.60;;;;;;;29.18;36.59;99670.66;5091389;28;20329;-44
2023/08/08 09:48:28;;;;;;;1.50;1.40;;;;;;;28.91;36.90;99668.34;5090826;28;20096;-44
2023/08/08 09:50:54;;;;;;;2.15;1.23;;;;;;;29.33;35.46;99666.56;5090086;28;20020;-45
2023/08/08 09:53:20;;;;;;;1.65;1.33;;;;;;;29.43;34.57;99666.19;5090994;28;20020;-46
2023/08/08 09:55:47;;;;;;;1.75;1.60;;;;;;;29.21;34.38;99661.78;5090651;28;20031;-44
2023/08/08 09:58:13;;;;;;;1.38;1.27;;;;;;;29.26;34.63;99651.78;5090716;28;20012;-43
2023/08/08 10:00:39;;;;;;;1.67;1.55;;;;;;;29.18;35.70;99656.97;5090864;28;20048;-44
2023/08/08 10:03:05;;;;;;;6.07;1.33;;;;;;;28.93;35.27;99663.34;5090855;28;20589;-44
2023/08/08 10:05:31;;;;;;;2.55;1.20;;;;;;;29.43;33.65;99659.88;5090887;28;20027;-44
2023/08/08 10:07:56;;;;;;;1.70;1.58;;;;;;;29.23;33.07;99655.97;5090460;28;20062;-44
2023/08/08 10:10:22;;;;;;;5.80;3.42;;;;;;;29.53;33.72;99651.28;5090665;28;20107;-47
2023/08/08 10:12:48;;;;;;;4.80;1.80;;;;;;;29.62;33.24;99652.03;5090639;28;20024;-43
2023/08/08 10:15:13;;;;;;;1.38;1.20;;;;;;;29.91;33.54;99650.41;5090474;28;20422;-44
2023/08/08 10:17:40;;;;;;;1.40;1.20;;;;;;;29.86;32.69;99656.06;5091405;28;20016;-44
2023/08/08 10:20:11;;;;;;;1.40;1.05;;;;;;;29.56;32.99;99650.59;5091399;28;20031;-46
2023/08/08 10:22:42;;;;;;;1.70;1.10;;;;;;;29.75;32.01;99657.59;5091370;28;20031;-43
2023/08/08 10:25:08;;;;;;;2.95;1.17;;;;;;;30.04;32.04;99651.22;5091047;28;20043;-44
2023/08/08 10:27:35;;;;;;;2.83;0.88;;;;;;;29.79;31.86;99644.84;5090334;28;20028;-45
2023/08/08 10:30:10;;;;;;;1.02;0.95;;;;;;;29.75;31.82;99635.69;5090000;28;20020;-43
2023/08/08 10:32:44;;;;;;;1.65;1.20;;;;;;;29.83;31.32;99648.50;5090392;28;20020;-44
2023/08/08 10:35:11;;;;;;;1.00;0.90;;;;;;;29.90;30.79;99642.50;5090434;28;20498;-43
2023/08/08 10:37:37;;;;;;;1.38;1.10;;;;;;;30.11;29.58;99643.25;5090230;28;20124;-44
2023/08/08 10:40:07;;;;;;;1.20;1.10;;;;;;;30.50;29.39;99643.06;5090843;28;20028;-44
2023/08/08 10:42:40;;;;;;;3.33;1.27;;;;;;;29.80;29.65;99625.31;5090395;28;20024;-44
2023/08/08 10:45:11;;;;;;;2.20;1.40;;;;;;;29.60;31.20;99637.03;5089878;28;20480;-43
2023/08/08 10:47:37;;;;;;;1.15;1.05;;;;;;;30.07;29.80;99633.31;5089785;28;20102;-43
2023/08/08 10:50:23;;;;;;;1.58;1.23;;;;;;;30.33;29.95;99633.06;5089943;28;20104;-43
2023/08/08 10:52:51;;;;;;;3.28;1.10;;;;;;;30.43;30.63;99635.41;5089889;28;20495;-45
2023/08/08 10:55:30;;;;;;;1.83;1.33;;;;;;;30.91;29.71;99631.16;5089727;28;20097;-43
2023/08/08 10:57:59;;;;;;;2.53;1.15;;;;;;;30.88;29.21;99634.56;5090159;28;20035;-44
2023/08/08 11:00:27;;;;;;;2.28;1.33;;;;;;;30.30;29.51;99629.03;5089439;28;20099;-46
2023/08/08 11:02:54;;;;;;;;;;;;;;;29.99;29.86;99629.50;5092941;28;20441;-44
2023/08/08 11:05:20;;;;;;;2.53;1.50;;;;;;;30.00;29.95;99623.66;5094032;28;20435;-44
2023/08/08 11:07:46;;;;;;;2.80;1.48;;;;;;;30.51;30.69;99631.75;5094339;28;20085;-44
2023/08/08 11:10:11;;;;;;;1.40;1.30;;;;;;;30.71;29.45;99627.34;5093886;28;20055;-44
2023/08/08 11:12:37;;;;;;;2.38;1.60;;;;;;;30.91;28.96;99624.84;5094044;28;20043;-44
2023/08/08 11:15:02;;;;;;;2.15;1.50;;;;;;;29.85;29.60;99618.81;5094135;28;20050;-44
2023/08/08 11:17:28;;;;;;;3.60;2.08;;;;;;;30.16;30.91;99617.56;5094060;28;20019;-46
2023/08/08 11:19:55;;;;;;;1.60;1.50;;;;;;;30.44;29.21;99611.50;5094049;28;20543;-45
2023/08/08 11:22:23;;;;;;;2.70;1.30;;;;;;;30.76;29.27;99623.56;5093877;28;20022;-43
2023/08/08 11:24:51;;;;;;;1.20;1.10;;;;;;;30.87;29.93;99616.47;5093928;28;20035;-45
2023/08/08 11:27:17;;;;;;;1.50;1.40;;;;;;;30.76;28.90;99601.59;5093012;28;20435;-43
2023/08/08 11:29:51;;;;;;;2.28;1.60;;;;;;;30.58;29.77;99612.00;5093936;28;20030;-44